sensor_id;sensor_type;location;lat;lon;timestamp;temperature;humidity
30534;DHT22;73248;52.398;9.814;2023-12-04T00:01:35;1.60;99.90
30534;DHT22;73248;52.398;9.814;2023-12-04T00:04:02;1.60;99.90
30534;DHT22;73248;52.398;9.814;2023-12-04T00:06:30;1.50;99.90
30534;DHT22;73248;52.398;9.814;2023-12-04T00:09:00;1.50;99.90
30534;DHT22;73248;52.398;9.814;2023-12-04T00:11:29;1.50;99.90
30534;DHT22;73248;52.398;9.814;2023-12-04T00:13:54;1.60;99.90
30534;DHT22;73248;52.398;9.814;2023-12-04T00:16:22;1.60;99.90
30534;DHT22;73248;52.398;9.814;2023-12-04T00:18:47;1.50;99.90
30534;DHT22;73248;52.398;9.814;2023-12-04T00:21:15;1.50;99.90
30534;DHT22;73248;52.398;9.814;2023-12-04T00:23:41;1.40;99.90
30534;DHT22;73248;52.398;9.814;2023-12-04T00:26:09;1.50;99.90
30534;DHT22;73248;52.398;9.814;2023-12-04T00:28:41;1.50;99.90
30534;DHT22;73248;52.398;9.814;2023-12-04T00:31:11;1.40;99.90
30534;DHT22;73248;52.398;9.814;2023-12-04T00:33:39;1.40;99.90
30534;DHT22;73248;52.398;9.814;2023-12-04T00:36:05;1.40;99.90
30534;DHT22;73248;52.398;9.814;2023-12-04T00:38:30;1.30;99.90
30534;DHT22;73248;52.398;9.814;2023-12-04T00:40:56;1.40;99.90
30534;DHT22;73248;52.398;9.814;2023-12-04T00:43:24;1.30;99.90
30534;DHT22;73248;52.398;9.814;2023-12-04T00:45:49;1.30;99.90
30534;DHT22;73248;52.398;9.814;2023-12-04T00:48:15;1.30;99.90
30534;DHT22;73248;52.398;9.814;2023-12-04T00:50:41;1.30;99.90
30534;DHT22;73248;52.398;9.814;2023-12-04T00:53:09;1.30;99.90
30534;DHT22;73248;52.398;9.814;2023-12-04T00:55:36;1.40;99.90
30534;DHT22;73248;52.398;9.814;2023-12-04T00:58:04;1.40;99.90
30534;DHT22;73248;52.398;9.814;2023-12-04T01:00:32;1.50;99.90
30534;DHT22;73248;52.398;9.814;2023-12-04T01:02:58;1.50;99.90
30534;DHT22;73248;52.398;9.814;2023-12-04T01:05:26;1.60;99.90
30534;DHT22;73248;52.398;9.814;2023-12-04T01:07:52;1.60;99.90
30534;DHT22;73248;52.398;9.814;2023-12-04T01:10:18;1.50;99.90
30534;DHT22;73248;52.398;9.814;2023-12-04T01:12:43;1.50;99.90
30534;DHT22;73248;52.398;9.814;2023-12-04T01:15:09;1.50;99.90
30534;DHT22;73248;52.398;9.814;2023-12-04T01:17:37;1.60;99.90
30534;DHT22;73248;52.398;9.814;2023-12-04T01:20:03;1.60;99.90
30534;DHT22;73248;52.398;9.814;2023-12-04T01:22:30;1.70;99.90
30534;DHT22;73248;52.398;9.814;2023-12-04T01:24:55;1.70;99.90
30534;DHT22;73248;52.398;9.814;2023-12-04T01:27:23;1.70;99.90
30534;DHT22;73248;52.398;9.814;2023-12-04T01:29:49;1.70;99.90
30534;DHT22;73248;52.398;9.814;2023-12-04T01:32:14;1.70;99.90
30534;DHT22;73248;52.398;9.814;2023-12-04T01:34:40;1.70;99.90
30534;DHT22;73248;52.398;9.814;2023-12-04T01:37:05;1.70;99.90
30534;DHT22;73248;52.398;9.814;2023-12-04T01:39:31;1.70;99.90
30534;DHT22;73248;52.398;9.814;2023-12-04T01:41:56;1.70;99.90
30534;DHT22;73248;52.398;9.814;2023-12-04T01:44:22;1.70;99.90
30534;DHT22;73248;52.398;9.814;2023-12-04T01:46:50;1.70;99.90
30534;DHT22;73248;52.398;9.814;2023-12-04T01:49:18;1.80;99.90
30534;DHT22;73248;52.398;9.814;2023-12-04T01:51:46;1.70;99.90
30534;DHT22;73248;52.398;9.814;2023-12-04T01:54:12;1.80;99.90
30534;DHT22;73248;52.398;9.814;2023-12-04T01:56:40;1.80;99.90
30534;DHT22;73248;52.398;9.814;2023-12-04T01:59:06;1.90;99.90
30534;DHT22;73248;52.398;9.814;2023-12-04T02:01:31;1.70;99.90
30534;DHT22;73248;52.398;9.814;2023-12-04T02:03:57;1.70;99.90
30534;DHT22;73248;52.398;9.814;2023-12-04T02:06:26;1.70;99.90
30534;DHT22;73248;52.398;9.814;2023-12-04T02:08:52;1.70;99.90
30534;DHT22;73248;52.398;9.814;2023-12-04T02:11:18;1.60;99.90
30534;DHT22;73248;52.398;9.814;2023-12-04T02:13:43;1.60;99.90
30534;DHT22;73248;52.398;9.814;2023-12-04T02:16:12;1.70;99.90
30534;DHT22;73248;52.398;9.814;2023-12-04T02:18:40;1.70;99.90
30534;DHT22;73248;52.398;9.814;2023-12-04T02:21:06;1.50;99.90
30534;DHT22;73248;52.398;9.814;2023-12-04T02:23:32;1.50;99.90
30534;DHT22;73248;52.398;9.814;2023-12-04T02:26:18;1.50;99.90
30534;DHT22;73248;52.398;9.814;2023-12-04T02:28:54;1.50;99.90
30534;DHT22;73248;52.398;9.814;2023-12-04T02:31:22;1.50;99.90
30534;DHT22;73248;52.398;9.814;2023-12-04T02:33:55;1.50;99.90
30534;DHT22;73248;52.398;9.814;2023-12-04T02:36:26;1.50;99.90
30534;DHT22;73248;52.398;9.814;2023-12-04T02:38:53;1.60;99.90
30534;DHT22;73248;52.398;9.814;2023-12-04T02:41:19;1.60;99.90
30534;DHT22;73248;52.398;9.814;2023-12-04T02:43:47;1.50;99.90
30534;DHT22;73248;52.398;9.814;2023-12-04T02:46:17;1.60;99.90
30534;DHT22;73248;52.398;9.814;2023-12-04T02:48:43;1.70;99.90
30534;DHT22;73248;52.398;9.814;2023-12-04T02:51:09;1.80;99.90
30534;DHT22;73248;52.398;9.814;2023-12-04T02:53:35;1.70;99.90
30534;DHT22;73248;52.398;9.814;2023-12-04T02:56:03;1.60;99.90
30534;DHT22;73248;52.398;9.814;2023-12-04T02:58:29;1.60;99.90
30534;DHT22;73248;52.398;9.814;2023-12-04T03:00:55;1.50;99.90
30534;DHT22;73248;52.398;9.814;2023-12-04T03:03:20;1.60;99.90
30534;DHT22;73248;52.398;9.814;2023-12-04T03:05:46;1.70;99.90
30534;DHT22;73248;52.398;9.814;2023-12-04T03:08:11;1.70;99.90
30534;DHT22;73248;52.398;9.814;2023-12-04T03:10:37;1.60;99.90
30534;DHT22;73248;52.398;9.814;2023-12-04T03:13:02;1.60;99.90
30534;DHT22;73248;52.398;9.814;2023-12-04T03:15:28;1.60;99.90
30534;DHT22;73248;52.398;9.814;2023-12-04T03:17:59;1.60;99.90
30534;DHT22;73248;52.398;9.814;2023-12-04T03:20:25;1.70;99.90
30534;DHT22;73248;52.398;9.814;2023-12-04T03:22:52;1.70;99.90
30534;DHT22;73248;52.398;9.814;2023-12-04T03:25:18;1.70;99.90
30534;DHT22;73248;52.398;9.814;2023-12-04T03:27:46;1.70;99.90
30534;DHT22;73248;52.398;9.814;2023-12-04T03:30:12;1.70;99.90
30534;DHT22;73248;52.398;9.814;2023-12-04T03:32:37;1.70;99.90
30534;DHT22;73248;52.398;9.814;2023-12-04T03:35:05;1.80;99.90
30534;DHT22;73248;52.398;9.814;2023-12-04T03:37:31;1.70;99.90
30534;DHT22;73248;52.398;9.814;2023-12-04T03:39:59;1.70;99.90
30534;DHT22;73248;52.398;9.814;2023-12-04T03:42:25;1.80;99.90
30534;DHT22;73248;52.398;9.814;2023-12-04T03:44:50;1.90;99.90
30534;DHT22;73248;52.398;9.814;2023-12-04T03:47:18;1.90;99.90
30534;DHT22;73248;52.398;9.814;2023-12-04T03:49:46;1.90;99.90
30534;DHT22;73248;52.398;9.814;2023-12-04T03:52:11;1.90;99.90
30534;DHT22;73248;52.398;9.814;2023-12-04T03:54:37;1.90;99.90
30534;DHT22;73248;52.398;9.814;2023-12-04T03:57:03;1.80;99.90
30534;DHT22;73248;52.398;9.814;2023-12-04T03:59:28;1.80;99.90
30534;DHT22;73248;52.398;9.814;2023-12-04T04:01:54;1.90;99.90
30534;DHT22;73248;52.398;9.814;2023-12-04T04:04:22;1.90;99.90
30534;DHT22;73248;52.398;9.814;2023-12-04T04:06:47;1.90;99.90
30534;DHT22;73248;52.398;9.814;2023-12-04T04:09:13;1.90;99.90
30534;DHT22;73248;52.398;9.814;2023-12-04T04:11:38;1.80;99.90
30534;DHT22;73248;52.398;9.814;2023-12-04T04:14:04;1.80;99.90
30534;DHT22;73248;52.398;9.814;2023-12-04T04:16:30;1.70;99.90
30534;DHT22;73248;52.398;9.814;2023-12-04T04:18:57;1.80;99.90
30534;DHT22;73248;52.398;9.814;2023-12-04T04:21:25;1.80;99.90
30534;DHT22;73248;52.398;9.814;2023-12-04T04:23:53;1.80;99.90
30534;DHT22;73248;52.398;9.814;2023-12-04T04:26:19;1.90;99.90
30534;DHT22;73248;52.398;9.814;2023-12-04T04:28:44;1.90;99.90
30534;DHT22;73248;52.398;9.814;2023-12-04T04:31:10;1.80;99.90
30534;DHT22;73248;52.398;9.814;2023-12-04T04:33:36;1.90;99.90
30534;DHT22;73248;52.398;9.814;2023-12-04T04:36:04;1.90;99.90
30534;DHT22;73248;52.398;9.814;2023-12-04T04:38:29;1.90;99.90
30534;DHT22;73248;52.398;9.814;2023-12-04T04:40:55;1.90;99.90
30534;DHT22;73248;52.398;9.814;2023-12-04T04:43:23;1.90;99.90
30534;DHT22;73248;52.398;9.814;2023-12-04T04:45:48;2.00;99.90
30534;DHT22;73248;52.398;9.814;2023-12-04T04:48:16;2.00;99.90
30534;DHT22;73248;52.398;9.814;2023-12-04T04:50:42;2.00;99.90
30534;DHT22;73248;52.398;9.814;2023-12-04T04:53:07;2.00;99.90
30534;DHT22;73248;52.398;9.814;2023-12-04T04:55:38;2.00;99.90
30534;DHT22;73248;52.398;9.814;2023-12-04T04:58:03;2.10;99.90
30534;DHT22;73248;52.398;9.814;2023-12-04T05:00:29;2.10;99.90
30534;DHT22;73248;52.398;9.814;2023-12-04T05:02:57;2.10;99.90
30534;DHT22;73248;52.398;9.814;2023-12-04T05:05:22;2.10;99.90
30534;DHT22;73248;52.398;9.814;2023-12-04T05:07:48;2.10;99.90
30534;DHT22;73248;52.398;9.814;2023-12-04T05:10:16;2.00;99.90
30534;DHT22;73248;52.398;9.814;2023-12-04T05:12:44;2.00;99.90
30534;DHT22;73248;52.398;9.814;2023-12-04T05:15:10;2.00;99.90
30534;DHT22;73248;52.398;9.814;2023-12-04T05:17:35;2.10;99.90
30534;DHT22;73248;52.398;9.814;2023-12-04T05:20:01;2.10;99.90
30534;DHT22;73248;52.398;9.814;2023-12-04T05:22:26;2.10;99.90
30534;DHT22;73248;52.398;9.814;2023-12-04T05:24:52;2.10;99.90
30534;DHT22;73248;52.398;9.814;2023-12-04T05:27:17;2.20;99.90
30534;DHT22;73248;52.398;9.814;2023-12-04T05:29:45;2.20;99.90
30534;DHT22;73248;52.398;9.814;2023-12-04T05:32:12;2.20;99.90
30534;DHT22;73248;52.398;9.814;2023-12-04T05:34:38;2.20;99.90
30534;DHT22;73248;52.398;9.814;2023-12-04T05:37:06;2.30;99.90
30534;DHT22;73248;52.398;9.814;2023-12-04T05:39:31;2.30;99.90
30534;DHT22;73248;52.398;9.814;2023-12-04T05:41:59;2.30;99.90
30534;DHT22;73248;52.398;9.814;2023-12-04T05:44:25;2.30;99.90
30534;DHT22;73248;52.398;9.814;2023-12-04T05:46:50;2.30;99.90
30534;DHT22;73248;52.398;9.814;2023-12-04T05:49:16;2.20;99.90
30534;DHT22;73248;52.398;9.814;2023-12-04T05:51:41;2.20;99.90
30534;DHT22;73248;52.398;9.814;2023-12-04T05:54:07;2.20;99.90
30534;DHT22;73248;52.398;9.814;2023-12-04T05:56:35;2.20;99.90
30534;DHT22;73248;52.398;9.814;2023-12-04T05:59:03;2.30;99.90
30534;DHT22;73248;52.398;9.814;2023-12-04T06:01:32;2.30;99.90
30534;DHT22;73248;52.398;9.814;2023-12-04T06:03:57;2.30;99.90
30534;DHT22;73248;52.398;9.814;2023-12-04T06:06:25;2.20;99.90
30534;DHT22;73248;52.398;9.814;2023-12-04T06:08:52;2.10;99.90
30534;DHT22;73248;52.398;9.814;2023-12-04T06:11:20;2.20;99.90
30534;DHT22;73248;52.398;9.814;2023-12-04T06:13:45;2.20;99.90
30534;DHT22;73248;52.398;9.814;2023-12-04T06:16:11;2.20;99.90
30534;DHT22;73248;52.398;9.814;2023-12-04T06:18:41;2.30;99.90
30534;DHT22;73248;52.398;9.814;2023-12-04T06:21:07;2.20;99.90
30534;DHT22;73248;52.398;9.814;2023-12-04T06:23:35;2.20;99.90
30534;DHT22;73248;52.398;9.814;2023-12-04T06:26:01;2.20;99.90
30534;DHT22;73248;52.398;9.814;2023-12-04T06:28:29;2.20;99.90
30534;DHT22;73248;52.398;9.814;2023-12-04T06:30:55;2.20;99.90
30534;DHT22;73248;52.398;9.814;2023-12-04T06:33:23;2.30;99.90
30534;DHT22;73248;52.398;9.814;2023-12-04T06:35:51;2.30;99.90
30534;DHT22;73248;52.398;9.814;2023-12-04T06:38:19;2.30;99.90
30534;DHT22;73248;52.398;9.814;2023-12-04T06:40:48;2.30;99.90
30534;DHT22;73248;52.398;9.814;2023-12-04T06:43:17;2.20;99.90
30534;DHT22;73248;52.398;9.814;2023-12-04T06:45:45;2.30;99.90
30534;DHT22;73248;52.398;9.814;2023-12-04T06:48:13;2.20;99.90
30534;DHT22;73248;52.398;9.814;2023-12-04T06:50:45;2.20;99.90
30534;DHT22;73248;52.398;9.814;2023-12-04T06:53:10;2.30;99.90
30534;DHT22;73248;52.398;9.814;2023-12-04T06:55:36;2.20;99.90
30534;DHT22;73248;52.398;9.814;2023-12-04T06:58:02;2.30;99.90
30534;DHT22;73248;52.398;9.814;2023-12-04T07:00:28;2.30;99.90
30534;DHT22;73248;52.398;9.814;2023-12-04T07:02:53;2.30;99.90
30534;DHT22;73248;52.398;9.814;2023-12-04T07:05:19;2.30;99.90
30534;DHT22;73248;52.398;9.814;2023-12-04T07:07:45;2.30;99.90
30534;DHT22;73248;52.398;9.814;2023-12-04T07:10:12;2.20;99.90
30534;DHT22;73248;52.398;9.814;2023-12-04T07:12:44;2.20;99.90
30534;DHT22;73248;52.398;9.814;2023-12-04T07:18:33;2.40;99.90
30534;DHT22;73248;52.398;9.814;2023-12-04T07:21:04;2.50;99.90
30534;DHT22;73248;52.398;9.814;2023-12-04T07:23:31;2.40;99.90
30534;DHT22;73248;52.398;9.814;2023-12-04T07:25:57;2.40;99.90
30534;DHT22;73248;52.398;9.814;2023-12-04T07:28:26;2.40;99.90
30534;DHT22;73248;52.398;9.814;2023-12-04T07:30:58;2.40;99.90
30534;DHT22;73248;52.398;9.814;2023-12-04T07:33:27;2.40;99.90
30534;DHT22;73248;52.398;9.814;2023-12-04T07:36:13;2.40;99.90
30534;DHT22;73248;52.398;9.814;2023-12-04T07:38:38;2.40;99.90
30534;DHT22;73248;52.398;9.814;2023-12-04T07:41:05;2.40;99.90
30534;DHT22;73248;52.398;9.814;2023-12-04T07:43:40;2.40;99.90
30534;DHT22;73248;52.398;9.814;2023-12-04T07:46:06;2.40;99.90
30534;DHT22;73248;52.398;9.814;2023-12-04T07:48:41;2.30;99.90
30534;DHT22;73248;52.398;9.814;2023-12-04T07:51:07;2.30;99.90
30534;DHT22;73248;52.398;9.814;2023-12-04T07:53:32;2.20;99.90
30534;DHT22;73248;52.398;9.814;2023-12-04T07:56:03;2.40;99.90
30534;DHT22;73248;52.398;9.814;2023-12-04T07:58:31;2.30;99.90
30534;DHT22;73248;52.398;9.814;2023-12-04T08:00:57;2.40;99.90
30534;DHT22;73248;52.398;9.814;2023-12-04T08:03:23;2.40;99.90
30534;DHT22;73248;52.398;9.814;2023-12-04T08:05:51;2.30;99.90
30534;DHT22;73248;52.398;9.814;2023-12-04T08:08:17;2.40;99.90
30534;DHT22;73248;52.398;9.814;2023-12-04T08:10:42;2.40;99.90
30534;DHT22;73248;52.398;9.814;2023-12-04T08:13:08;2.40;99.90
30534;DHT22;73248;52.398;9.814;2023-12-04T08:15:33;2.40;99.90
30534;DHT22;73248;52.398;9.814;2023-12-04T08:18:04;2.40;99.90
30534;DHT22;73248;52.398;9.814;2023-12-04T08:20:32;2.40;99.80
30534;DHT22;73248;52.398;9.814;2023-12-04T08:23:01;2.40;99.90
30534;DHT22;73248;52.398;9.814;2023-12-04T08:25:29;2.40;99.90
30534;DHT22;73248;52.398;9.814;2023-12-04T08:27:55;2.50;99.90
30534;DHT22;73248;52.398;9.814;2023-12-04T08:30:23;2.40;99.90
30534;DHT22;73248;52.398;9.814;2023-12-04T08:32:48;2.40;99.90
30534;DHT22;73248;52.398;9.814;2023-12-04T08:35:16;2.40;99.90
30534;DHT22;73248;52.398;9.814;2023-12-04T08:37:41;2.40;99.90
30534;DHT22;73248;52.398;9.814;2023-12-04T08:40:08;2.50;99.90
30534;DHT22;73248;52.398;9.814;2023-12-04T08:42:33;2.50;99.90
30534;DHT22;73248;52.398;9.814;2023-12-04T08:44:59;2.50;99.90
30534;DHT22;73248;52.398;9.814;2023-12-04T08:47:25;2.40;99.90
30534;DHT22;73248;52.398;9.814;2023-12-04T08:49:50;2.30;99.90
30534;DHT22;73248;52.398;9.814;2023-12-04T08:52:19;2.30;99.90
30534;DHT22;73248;52.398;9.814;2023-12-04T08:54:47;2.40;99.90
30534;DHT22;73248;52.398;9.814;2023-12-04T08:57:15;2.50;99.90
30534;DHT22;73248;52.398;9.814;2023-12-04T08:59:41;2.40;99.90
30534;DHT22;73248;52.398;9.814;2023-12-04T09:02:06;2.40;99.90
30534;DHT22;73248;52.398;9.814;2023-12-04T09:04:35;2.40;99.90
30534;DHT22;73248;52.398;9.814;2023-12-04T09:07:00;2.40;99.90
30534;DHT22;73248;52.398;9.814;2023-12-04T09:09:26;2.50;99.90
30534;DHT22;73248;52.398;9.814;2023-12-04T09:11:51;2.50;99.90
30534;DHT22;73248;52.398;9.814;2023-12-04T09:14:17;2.50;99.90
30534;DHT22;73248;52.398;9.814;2023-12-04T09:16:45;2.50;99.90
30534;DHT22;73248;52.398;9.814;2023-12-04T09:19:10;2.50;99.90
30534;DHT22;73248;52.398;9.814;2023-12-04T09:21:36;2.60;99.90
30534;DHT22;73248;52.398;9.814;2023-12-04T09:24:02;2.40;99.90
30534;DHT22;73248;52.398;9.814;2023-12-04T09:26:28;2.40;99.90
30534;DHT22;73248;52.398;9.814;2023-12-04T09:28:53;2.40;99.90
30534;DHT22;73248;52.398;9.814;2023-12-04T09:31:19;2.50;99.90
30534;DHT22;73248;52.398;9.814;2023-12-04T09:33:45;2.50;99.90
30534;DHT22;73248;52.398;9.814;2023-12-04T09:36:10;2.60;99.90
30534;DHT22;73248;52.398;9.814;2023-12-04T09:38:36;2.60;99.90
30534;DHT22;73248;52.398;9.814;2023-12-04T09:41:06;2.70;99.90
30534;DHT22;73248;52.398;9.814;2023-12-04T09:43:34;2.70;99.90
30534;DHT22;73248;52.398;9.814;2023-12-04T09:46:01;2.70;99.90
30534;DHT22;73248;52.398;9.814;2023-12-04T09:48:29;2.70;99.90
30534;DHT22;73248;52.398;9.814;2023-12-04T09:50:59;2.70;99.90
30534;DHT22;73248;52.398;9.814;2023-12-04T09:53:26;2.70;99.90
30534;DHT22;73248;52.398;9.814;2023-12-04T09:55:53;2.80;99.90
30534;DHT22;73248;52.398;9.814;2023-12-04T09:58:26;2.80;99.90
30534;DHT22;73248;52.398;9.814;2023-12-04T10:00:55;2.80;99.90
30534;DHT22;73248;52.398;9.814;2023-12-04T10:03:24;2.80;99.90
30534;DHT22;73248;52.398;9.814;2023-12-04T10:05:50;2.90;99.90
30534;DHT22;73248;52.398;9.814;2023-12-04T10:08:18;2.90;99.90
30534;DHT22;73248;52.398;9.814;2023-12-04T10:10:44;2.90;99.90
30534;DHT22;73248;52.398;9.814;2023-12-04T10:13:12;2.80;99.90
30534;DHT22;73248;52.398;9.814;2023-12-04T10:15:47;2.90;99.90
30534;DHT22;73248;52.398;9.814;2023-12-04T10:18:30;3.00;99.90
30534;DHT22;73248;52.398;9.814;2023-12-04T10:20:56;3.00;99.90
30534;DHT22;73248;52.398;9.814;2023-12-04T10:23:22;3.00;99.90
30534;DHT22;73248;52.398;9.814;2023-12-04T10:25:49;3.00;99.90
30534;DHT22;73248;52.398;9.814;2023-12-04T10:28:18;3.00;99.90
30534;DHT22;73248;52.398;9.814;2023-12-04T10:30:45;3.10;99.90
30534;DHT22;73248;52.398;9.814;2023-12-04T10:33:11;3.20;99.90
30534;DHT22;73248;52.398;9.814;2023-12-04T10:35:37;3.20;99.90
30534;DHT22;73248;52.398;9.814;2023-12-04T10:38:09;3.20;99.90
30534;DHT22;73248;52.398;9.814;2023-12-04T10:40:36;3.20;99.90
30534;DHT22;73248;52.398;9.814;2023-12-04T10:43:21;3.30;99.90
30534;DHT22;73248;52.398;9.814;2023-12-04T10:45:49;3.30;99.90
30534;DHT22;73248;52.398;9.814;2023-12-04T10:48:17;3.40;99.90
30534;DHT22;73248;52.398;9.814;2023-12-04T10:50:45;3.40;99.90
30534;DHT22;73248;52.398;9.814;2023-12-04T10:53:11;3.40;99.90
30534;DHT22;73248;52.398;9.814;2023-12-04T10:55:38;3.50;99.90
30534;DHT22;73248;52.398;9.814;2023-12-04T10:58:10;3.60;99.70
30534;DHT22;73248;52.398;9.814;2023-12-04T11:01:10;3.50;99.30
30534;DHT22;73248;52.398;9.814;2023-12-04T11:03:34;3.50;99.70
30534;DHT22;73248;52.398;9.814;2023-12-04T11:06:02;3.50;99.90
30534;DHT22;73248;52.398;9.814;2023-12-04T11:08:33;3.50;99.10
30534;DHT22;73248;52.398;9.814;2023-12-04T11:11:01;3.40;99.00
30534;DHT22;73248;52.398;9.814;2023-12-04T11:13:30;3.40;99.30
30534;DHT22;73248;52.398;9.814;2023-12-04T11:16:02;3.40;99.20
30534;DHT22;73248;52.398;9.814;2023-12-04T11:18:31;3.40;99.40
30534;DHT22;73248;52.398;9.814;2023-12-04T11:21:08;3.40;99.10
30534;DHT22;73248;52.398;9.814;2023-12-04T11:23:35;3.40;99.10
30534;DHT22;73248;52.398;9.814;2023-12-04T11:26:01;3.50;99.20
30534;DHT22;73248;52.398;9.814;2023-12-04T11:28:34;3.50;99.10
30534;DHT22;73248;52.398;9.814;2023-12-04T11:31:06;3.50;98.70
30534;DHT22;73248;52.398;9.814;2023-12-04T11:33:38;3.50;99.10
30534;DHT22;73248;52.398;9.814;2023-12-04T11:36:12;3.50;99.30
30534;DHT22;73248;52.398;9.814;2023-12-04T11:38:40;3.60;98.90
30534;DHT22;73248;52.398;9.814;2023-12-04T11:41:34;3.50;99.20
30534;DHT22;73248;52.398;9.814;2023-12-04T11:44:00;3.50;99.30
30534;DHT22;73248;52.398;9.814;2023-12-04T11:46:28;3.60;99.20
30534;DHT22;73248;52.398;9.814;2023-12-04T11:48:55;3.50;98.90
30534;DHT22;73248;52.398;9.814;2023-12-04T11:54:08;3.60;99.10
30534;DHT22;73248;52.398;9.814;2023-12-04T11:56:34;3.70;99.00
30534;DHT22;73248;52.398;9.814;2023-12-04T11:59:07;3.70;98.70
30534;DHT22;73248;52.398;9.814;2023-12-04T12:01:38;3.60;98.50
30534;DHT22;73248;52.398;9.814;2023-12-04T12:04:07;3.60;98.70
30534;DHT22;73248;52.398;9.814;2023-12-04T12:06:38;3.60;98.70
30534;DHT22;73248;52.398;9.814;2023-12-04T12:09:04;3.60;98.50
30534;DHT22;73248;52.398;9.814;2023-12-04T12:11:33;3.70;98.30
30534;DHT22;73248;52.398;9.814;2023-12-04T12:13:59;3.70;98.30
30534;DHT22;73248;52.398;9.814;2023-12-04T12:16:30;3.60;98.40
30534;DHT22;73248;52.398;9.814;2023-12-04T12:18:56;3.60;97.80
30534;DHT22;73248;52.398;9.814;2023-12-04T12:21:24;3.60;98.10
30534;DHT22;73248;52.398;9.814;2023-12-04T12:23:50;3.50;98.00
30534;DHT22;73248;52.398;9.814;2023-12-04T12:26:16;3.50;98.00
30534;DHT22;73248;52.398;9.814;2023-12-04T12:28:41;3.50;98.20
30534;DHT22;73248;52.398;9.814;2023-12-04T12:31:09;3.50;98.00
30534;DHT22;73248;52.398;9.814;2023-12-04T12:33:35;3.60;98.10
30534;DHT22;73248;52.398;9.814;2023-12-04T12:36:03;3.60;98.10
30534;DHT22;73248;52.398;9.814;2023-12-04T12:38:31;3.70;97.90
30534;DHT22;73248;52.398;9.814;2023-12-04T12:41:01;3.60;98.10
30534;DHT22;73248;52.398;9.814;2023-12-04T12:43:28;3.60;98.10
30534;DHT22;73248;52.398;9.814;2023-12-04T12:45:53;3.60;97.90
30534;DHT22;73248;52.398;9.814;2023-12-04T12:48:21;3.60;98.20
30534;DHT22;73248;52.398;9.814;2023-12-04T12:50:52;3.50;98.00
30534;DHT22;73248;52.398;9.814;2023-12-04T12:53:20;3.50;97.90
30534;DHT22;73248;52.398;9.814;2023-12-04T12:55:53;3.50;98.00
30534;DHT22;73248;52.398;9.814;2023-12-04T12:58:19;3.50;97.80
30534;DHT22;73248;52.398;9.814;2023-12-04T13:00:46;3.50;97.70
30534;DHT22;73248;52.398;9.814;2023-12-04T13:03:19;3.50;97.50
30534;DHT22;73248;52.398;9.814;2023-12-04T13:05:45;3.60;98.00
30534;DHT22;73248;52.398;9.814;2023-12-04T13:08:11;3.70;97.90
30534;DHT22;73248;52.398;9.814;2023-12-04T13:10:43;3.50;97.40
30534;DHT22;73248;52.398;9.814;2023-12-04T13:13:12;3.60;97.60
30534;DHT22;73248;52.398;9.814;2023-12-04T13:15:38;3.70;97.90
30534;DHT22;73248;52.398;9.814;2023-12-04T13:18:04;3.70;97.60
30534;DHT22;73248;52.398;9.814;2023-12-04T13:20:32;3.70;97.80
30534;DHT22;73248;52.398;9.814;2023-12-04T13:23:00;3.70;97.70
30534;DHT22;73248;52.398;9.814;2023-12-04T13:25:26;3.70;97.30
30534;DHT22;73248;52.398;9.814;2023-12-04T13:27:54;3.70;97.30
30534;DHT22;73248;52.398;9.814;2023-12-04T13:30:19;3.70;97.70
30534;DHT22;73248;52.398;9.814;2023-12-04T13:32:45;3.70;97.20
30534;DHT22;73248;52.398;9.814;2023-12-04T13:35:15;3.70;97.10
30534;DHT22;73248;52.398;9.814;2023-12-04T13:37:41;3.70;97.20
30534;DHT22;73248;52.398;9.814;2023-12-04T13:40:07;3.70;96.90
30534;DHT22;73248;52.398;9.814;2023-12-04T13:42:35;3.70;96.80
30534;DHT22;73248;52.398;9.814;2023-12-04T13:45:22;3.70;96.90
30534;DHT22;73248;52.398;9.814;2023-12-04T13:47:50;3.70;96.80
30534;DHT22;73248;52.398;9.814;2023-12-04T13:50:17;3.70;96.80
30534;DHT22;73248;52.398;9.814;2023-12-04T13:52:42;3.60;96.60
30534;DHT22;73248;52.398;9.814;2023-12-04T13:55:09;3.60;96.70
30534;DHT22;73248;52.398;9.814;2023-12-04T13:58:01;3.50;96.30
30534;DHT22;73248;52.398;9.814;2023-12-04T14:00:32;3.60;96.70
30534;DHT22;73248;52.398;9.814;2023-12-04T14:02:57;3.60;96.70
30534;DHT22;73248;52.398;9.814;2023-12-04T14:05:30;3.60;96.70
30534;DHT22;73248;52.398;9.814;2023-12-04T14:07:56;3.70;96.80
30534;DHT22;73248;52.398;9.814;2023-12-04T14:10:24;3.60;96.70
30534;DHT22;73248;52.398;9.814;2023-12-04T14:12:51;3.60;96.80
30534;DHT22;73248;52.398;9.814;2023-12-04T14:15:19;3.70;97.10
30534;DHT22;73248;52.398;9.814;2023-12-04T14:17:45;3.70;97.10
30534;DHT22;73248;52.398;9.814;2023-12-04T14:20:14;3.70;97.60
30534;DHT22;73248;52.398;9.814;2023-12-04T14:22:43;3.80;98.10
30534;DHT22;73248;52.398;9.814;2023-12-04T14:25:11;3.90;98.10
30534;DHT22;73248;52.398;9.814;2023-12-04T14:27:40;3.90;98.30
30534;DHT22;73248;52.398;9.814;2023-12-04T14:30:07;4.00;99.00
30534;DHT22;73248;52.398;9.814;2023-12-04T14:32:34;3.90;98.90
30534;DHT22;73248;52.398;9.814;2023-12-04T14:34:59;3.90;99.10
30534;DHT22;73248;52.398;9.814;2023-12-04T14:37:26;3.90;99.30
30534;DHT22;73248;52.398;9.814;2023-12-04T14:39:51;3.90;99.50
30534;DHT22;73248;52.398;9.814;2023-12-04T14:42:19;3.90;99.50
30534;DHT22;73248;52.398;9.814;2023-12-04T14:44:45;3.80;99.90
30534;DHT22;73248;52.398;9.814;2023-12-04T14:47:10;3.80;99.90
30534;DHT22;73248;52.398;9.814;2023-12-04T14:49:39;3.90;99.90
30534;DHT22;73248;52.398;9.814;2023-12-04T14:52:07;3.90;99.90
30534;DHT22;73248;52.398;9.814;2023-12-04T14:54:41;3.80;99.90
30534;DHT22;73248;52.398;9.814;2023-12-04T14:57:20;3.90;99.90
30534;DHT22;73248;52.398;9.814;2023-12-04T15:00:05;3.90;99.90
30534;DHT22;73248;52.398;9.814;2023-12-04T15:02:51;3.90;99.90
30534;DHT22;73248;52.398;9.814;2023-12-04T15:05:17;4.00;99.90
30534;DHT22;73248;52.398;9.814;2023-12-04T15:08:12;4.00;99.90
30534;DHT22;73248;52.398;9.814;2023-12-04T15:10:46;4.00;99.90
30534;DHT22;73248;52.398;9.814;2023-12-04T15:13:27;3.80;99.90
30534;DHT22;73248;52.398;9.814;2023-12-04T15:15:59;3.90;99.90
30534;DHT22;73248;52.398;9.814;2023-12-04T15:18:46;3.80;99.90
30534;DHT22;73248;52.398;9.814;2023-12-04T15:21:18;3.90;99.90
30534;DHT22;73248;52.398;9.814;2023-12-04T15:23:47;3.90;99.90
30534;DHT22;73248;52.398;9.814;2023-12-04T15:26:18;4.00;99.90
30534;DHT22;73248;52.398;9.814;2023-12-04T15:28:46;3.90;99.90
30534;DHT22;73248;52.398;9.814;2023-12-04T15:31:16;3.80;99.90
30534;DHT22;73248;52.398;9.814;2023-12-04T15:33:42;3.80;99.90
30534;DHT22;73248;52.398;9.814;2023-12-04T15:36:12;3.80;99.90
30534;DHT22;73248;52.398;9.814;2023-12-04T15:38:40;3.80;99.90
30534;DHT22;73248;52.398;9.814;2023-12-04T15:41:09;3.80;99.90
30534;DHT22;73248;52.398;9.814;2023-12-04T15:43:34;3.80;99.90
30534;DHT22;73248;52.398;9.814;2023-12-04T15:46:02;3.70;99.90
30534;DHT22;73248;52.398;9.814;2023-12-04T15:48:31;3.80;99.90
30534;DHT22;73248;52.398;9.814;2023-12-04T15:50:59;3.60;99.90
30534;DHT22;73248;52.398;9.814;2023-12-04T15:53:24;3.70;99.90
30534;DHT22;73248;52.398;9.814;2023-12-04T15:55:55;3.70;99.90